sensor_id;sensor_type;location;lat;lon;timestamp;P1;durP1;ratioP1;P2;durP2;ratioP2
82850;SDS011;72609;45.768;4.884;2024-01-30T00:01:41;9.07;;;5.60;;
82850;SDS011;72609;45.768;4.884;2024-01-30T00:04:07;12.20;;;5.68;;
82850;SDS011;72609;45.768;4.884;2024-01-30T00:06:33;7.95;;;5.25;;
82850;SDS011;72609;45.768;4.884;2024-01-30T00:08:58;7.78;;;5.43;;
82850;SDS011;72609;45.768;4.884;2024-01-30T00:11:24;9.68;;;5.22;;
82850;SDS011;72609;45.768;4.884;2024-01-30T00:13:51;8.63;;;5.07;;
82850;SDS011;72609;45.768;4.884;2024-01-30T00:16:23;11.00;;;5.95;;
82850;SDS011;72609;45.768;4.884;2024-01-30T00:18:50;9.23;;;5.38;;
82850;SDS011;72609;45.768;4.884;2024-01-30T00:21:16;8.40;;;5.63;;
82850;SDS011;72609;45.768;4.884;2024-01-30T00:23:42;9.93;;;5.07;;
82850;SDS011;72609;45.768;4.884;2024-01-30T00:26:08;8.07;;;4.55;;
82850;SDS011;72609;45.768;4.884;2024-01-30T00:28:34;9.95;;;5.40;;
82850;SDS011;72609;45.768;4.884;2024-01-30T00:31:00;11.57;;;5.72;;
82850;SDS011;72609;45.768;4.884;2024-01-30T00:33:26;7.68;;;4.47;;
82850;SDS011;72609;45.768;4.884;2024-01-30T00:35:52;8.27;;;5.47;;
82850;SDS011;72609;45.768;4.884;2024-01-30T00:38:18;8.50;;;4.53;;
82850;SDS011;72609;45.768;4.884;2024-01-30T00:40:44;8.38;;;6.25;;
82850;SDS011;72609;45.768;4.884;2024-01-30T00:43:10;9.88;;;6.60;;
82850;SDS011;72609;45.768;4.884;2024-01-30T00:45:36;10.95;;;5.82;;
82850;SDS011;72609;45.768;4.884;2024-01-30T00:48:02;11.40;;;6.57;;
82850;SDS011;72609;45.768;4.884;2024-01-30T00:52:55;9.50;;;5.57;;
82850;SDS011;72609;45.768;4.884;2024-01-30T00:55:21;12.18;;;6.25;;
82850;SDS011;72609;45.768;4.884;2024-01-30T00:57:46;13.07;;;6.65;;
82850;SDS011;72609;45.768;4.884;2024-01-30T01:00:13;14.48;;;6.70;;
82850;SDS011;72609;45.768;4.884;2024-01-30T01:02:42;11.57;;;6.65;;
82850;SDS011;72609;45.768;4.884;2024-01-30T01:05:08;14.30;;;7.45;;
82850;SDS011;72609;45.768;4.884;2024-01-30T01:07:34;9.77;;;6.63;;
82850;SDS011;72609;45.768;4.884;2024-01-30T01:10:00;10.20;;;6.38;;
82850;SDS011;72609;45.768;4.884;2024-01-30T01:12:27;10.48;;;6.28;;
82850;SDS011;72609;45.768;4.884;2024-01-30T01:14:53;17.20;;;6.70;;
82850;SDS011;72609;45.768;4.884;2024-01-30T01:17:19;9.82;;;5.85;;
82850;SDS011;72609;45.768;4.884;2024-01-30T01:19:45;15.50;;;6.40;;
82850;SDS011;72609;45.768;4.884;2024-01-30T01:22:11;13.98;;;7.25;;
82850;SDS011;72609;45.768;4.884;2024-01-30T01:24:37;12.73;;;7.00;;
82850;SDS011;72609;45.768;4.884;2024-01-30T01:27:03;9.23;;;5.60;;
82850;SDS011;72609;45.768;4.884;2024-01-30T01:29:29;10.75;;;6.15;;
82850;SDS011;72609;45.768;4.884;2024-01-30T01:31:55;9.77;;;6.25;;
82850;SDS011;72609;45.768;4.884;2024-01-30T01:34:21;11.60;;;6.22;;
82850;SDS011;72609;45.768;4.884;2024-01-30T01:36:48;9.20;;;5.65;;
82850;SDS011;72609;45.768;4.884;2024-01-30T01:39:14;12.32;;;6.55;;
82850;SDS011;72609;45.768;4.884;2024-01-30T01:41:40;17.55;;;6.10;;
82850;SDS011;72609;45.768;4.884;2024-01-30T01:44:06;10.90;;;5.85;;
82850;SDS011;72609;45.768;4.884;2024-01-30T01:46:33;10.13;;;6.18;;
82850;SDS011;72609;45.768;4.884;2024-01-30T01:51:26;10.15;;;6.05;;
82850;SDS011;72609;45.768;4.884;2024-01-30T01:53:53;14.05;;;5.78;;
82850;SDS011;72609;45.768;4.884;2024-01-30T01:56:19;9.65;;;6.32;;
82850;SDS011;72609;45.768;4.884;2024-01-30T01:58:46;12.70;;;5.63;;
82850;SDS011;72609;45.768;4.884;2024-01-30T02:01:12;9.43;;;5.22;;
82850;SDS011;72609;45.768;4.884;2024-01-30T02:03:39;11.07;;;5.93;;
82850;SDS011;72609;45.768;4.884;2024-01-30T02:06:05;14.30;;;5.47;;
82850;SDS011;72609;45.768;4.884;2024-01-30T02:08:31;9.35;;;5.72;;
82850;SDS011;72609;45.768;4.884;2024-01-30T02:10:58;11.07;;;6.40;;
82850;SDS011;72609;45.768;4.884;2024-01-30T02:13:24;10.10;;;6.78;;
82850;SDS011;72609;45.768;4.884;2024-01-30T02:15:50;14.88;;;6.28;;
82850;SDS011;72609;45.768;4.884;2024-01-30T02:18:17;9.43;;;6.18;;
82850;SDS011;72609;45.768;4.884;2024-01-30T02:20:43;11.75;;;6.65;;
82850;SDS011;72609;45.768;4.884;2024-01-30T02:23:09;11.82;;;6.20;;
82850;SDS011;72609;45.768;4.884;2024-01-30T02:25:38;17.85;;;6.68;;
82850;SDS011;72609;45.768;4.884;2024-01-30T02:30:34;9.85;;;6.07;;
82850;SDS011;72609;45.768;4.884;2024-01-30T02:33:00;14.05;;;6.35;;
82850;SDS011;72609;45.768;4.884;2024-01-30T02:35:26;10.57;;;6.05;;
82850;SDS011;72609;45.768;4.884;2024-01-30T02:37:53;13.27;;;6.32;;
82850;SDS011;72609;45.768;4.884;2024-01-30T02:40:19;11.32;;;6.07;;
82850;SDS011;72609;45.768;4.884;2024-01-30T02:42:45;14.13;;;7.13;;
82850;SDS011;72609;45.768;4.884;2024-01-30T02:45:11;11.73;;;7.22;;
82850;SDS011;72609;45.768;4.884;2024-01-30T02:47:37;11.93;;;7.63;;
82850;SDS011;72609;45.768;4.884;2024-01-30T02:50:03;11.65;;;6.45;;
82850;SDS011;72609;45.768;4.884;2024-01-30T02:52:29;16.60;;;6.75;;
82850;SDS011;72609;45.768;4.884;2024-01-30T02:54:55;13.35;;;6.63;;
82850;SDS011;72609;45.768;4.884;2024-01-30T02:57:21;11.77;;;6.32;;
82850;SDS011;72609;45.768;4.884;2024-01-30T02:59:47;9.77;;;6.43;;
82850;SDS011;72609;45.768;4.884;2024-01-30T03:02:13;15.13;;;6.28;;
82850;SDS011;72609;45.768;4.884;2024-01-30T03:04:42;11.75;;;6.57;;
82850;SDS011;72609;45.768;4.884;2024-01-30T03:07:08;8.73;;;5.68;;
82850;SDS011;72609;45.768;4.884;2024-01-30T03:09:34;8.23;;;6.10;;
82850;SDS011;72609;45.768;4.884;2024-01-30T03:12:00;9.55;;;5.32;;
82850;SDS011;72609;45.768;4.884;2024-01-30T03:14:26;10.68;;;6.85;;
82850;SDS011;72609;45.768;4.884;2024-01-30T03:16:52;11.38;;;6.38;;
82850;SDS011;72609;45.768;4.884;2024-01-30T03:19:18;14.20;;;7.22;;
82850;SDS011;72609;45.768;4.884;2024-01-30T03:21:44;10.60;;;6.68;;
82850;SDS011;72609;45.768;4.884;2024-01-30T03:24:10;10.63;;;5.47;;
82850;SDS011;72609;45.768;4.884;2024-01-30T03:26:36;11.45;;;6.35;;
82850;SDS011;72609;45.768;4.884;2024-01-30T03:29:02;9.43;;;6.78;;
82850;SDS011;72609;45.768;4.884;2024-01-30T03:31:28;12.90;;;6.68;;
82850;SDS011;72609;45.768;4.884;2024-01-30T03:33:54;10.68;;;6.28;;
82850;SDS011;72609;45.768;4.884;2024-01-30T03:36:20;9.25;;;6.05;;
82850;SDS011;72609;45.768;4.884;2024-01-30T03:38:46;12.63;;;6.05;;
82850;SDS011;72609;45.768;4.884;2024-01-30T03:41:12;8.30;;;5.22;;
82850;SDS011;72609;45.768;4.884;2024-01-30T03:43:38;9.73;;;6.03;;
82850;SDS011;72609;45.768;4.884;2024-01-30T03:46:04;9.07;;;6.65;;
82850;SDS011;72609;45.768;4.884;2024-01-30T03:48:30;11.60;;;7.40;;
82850;SDS011;72609;45.768;4.884;2024-01-30T03:50:56;10.05;;;5.88;;
82850;SDS011;72609;45.768;4.884;2024-01-30T03:53:22;11.88;;;6.60;;
82850;SDS011;72609;45.768;4.884;2024-01-30T03:55:48;9.80;;;6.13;;
82850;SDS011;72609;45.768;4.884;2024-01-30T03:58:14;8.77;;;5.22;;
82850;SDS011;72609;45.768;4.884;2024-01-30T04:00:40;12.98;;;6.13;;
82850;SDS011;72609;45.768;4.884;2024-01-30T04:03:06;9.02;;;5.93;;
82850;SDS011;72609;45.768;4.884;2024-01-30T04:05:32;9.25;;;6.32;;
82850;SDS011;72609;45.768;4.884;2024-01-30T04:07:58;8.80;;;5.78;;
82850;SDS011;72609;45.768;4.884;2024-01-30T04:10:24;10.88;;;6.55;;
82850;SDS011;72609;45.768;4.884;2024-01-30T04:12:50;14.55;;;6.47;;
82850;SDS011;72609;45.768;4.884;2024-01-30T04:15:17;9.98;;;6.45;;
82850;SDS011;72609;45.768;4.884;2024-01-30T04:17:43;12.13;;;6.65;;
82850;SDS011;72609;45.768;4.884;2024-01-30T04:20:15;14.10;;;7.38;;
82850;SDS011;72609;45.768;4.884;2024-01-30T04:22:42;11.82;;;6.88;;
82850;SDS011;72609;45.768;4.884;2024-01-30T04:25:09;10.80;;;7.00;;
82850;SDS011;72609;45.768;4.884;2024-01-30T04:27:35;13.80;;;7.10;;
82850;SDS011;72609;45.768;4.884;2024-01-30T04:30:01;11.43;;;6.68;;
82850;SDS011;72609;45.768;4.884;2024-01-30T04:32:27;13.98;;;6.90;;
82850;SDS011;72609;45.768;4.884;2024-01-30T04:34:53;9.48;;;6.20;;
82850;SDS011;72609;45.768;4.884;2024-01-30T04:37:19;10.73;;;6.60;;
82850;SDS011;72609;45.768;4.884;2024-01-30T04:39:45;9.70;;;6.22;;
82850;SDS011;72609;45.768;4.884;2024-01-30T04:42:11;10.70;;;6.80;;
82850;SDS011;72609;45.768;4.884;2024-01-30T04:44:37;9.57;;;5.38;;
82850;SDS011;72609;45.768;4.884;2024-01-30T04:47:03;12.50;;;6.45;;
82850;SDS011;72609;45.768;4.884;2024-01-30T04:49:31;8.65;;;5.90;;
82850;SDS011;72609;45.768;4.884;2024-01-30T04:51:57;13.40;;;7.57;;
82850;SDS011;72609;45.768;4.884;2024-01-30T04:54:23;10.55;;;6.65;;
82850;SDS011;72609;45.768;4.884;2024-01-30T04:56:49;10.52;;;6.45;;
82850;SDS011;72609;45.768;4.884;2024-01-30T04:59:15;10.60;;;6.50;;
82850;SDS011;72609;45.768;4.884;2024-01-30T05:01:41;12.75;;;7.38;;
82850;SDS011;72609;45.768;4.884;2024-01-30T05:04:07;9.65;;;6.85;;
82850;SDS011;72609;45.768;4.884;2024-01-30T05:06:33;11.55;;;7.20;;
82850;SDS011;72609;45.768;4.884;2024-01-30T05:08:59;13.88;;;8.35;;
82850;SDS011;72609;45.768;4.884;2024-01-30T05:11:25;13.23;;;6.55;;
82850;SDS011;72609;45.768;4.884;2024-01-30T05:13:51;13.93;;;8.23;;
82850;SDS011;72609;45.768;4.884;2024-01-30T05:16:17;16.35;;;7.22;;
82850;SDS011;72609;45.768;4.884;2024-01-30T05:18:43;14.10;;;7.28;;
82850;SDS011;72609;45.768;4.884;2024-01-30T05:21:10;13.70;;;8.02;;
82850;SDS011;72609;45.768;4.884;2024-01-30T05:23:36;9.75;;;7.00;;
82850;SDS011;72609;45.768;4.884;2024-01-30T05:26:02;12.55;;;6.75;;
82850;SDS011;72609;45.768;4.884;2024-01-30T05:28:31;14.77;;;6.95;;
82850;SDS011;72609;45.768;4.884;2024-01-30T05:30:57;11.57;;;6.78;;
82850;SDS011;72609;45.768;4.884;2024-01-30T05:33:23;10.75;;;7.65;;
82850;SDS011;72609;45.768;4.884;2024-01-30T05:35:49;12.13;;;6.97;;
82850;SDS011;72609;45.768;4.884;2024-01-30T05:38:19;7.93;;;5.55;;
82850;SDS011;72609;45.768;4.884;2024-01-30T05:40:45;12.10;;;7.93;;
82850;SDS011;72609;45.768;4.884;2024-01-30T05:43:11;12.23;;;7.40;;
82850;SDS011;72609;45.768;4.884;2024-01-30T05:45:37;11.93;;;7.85;;
82850;SDS011;72609;45.768;4.884;2024-01-30T05:48:03;11.95;;;7.80;;
82850;SDS011;72609;45.768;4.884;2024-01-30T05:50:29;13.15;;;7.97;;
82850;SDS011;72609;45.768;4.884;2024-01-30T05:52:55;14.20;;;7.72;;
82850;SDS011;72609;45.768;4.884;2024-01-30T05:55:22;13.88;;;7.18;;
82850;SDS011;72609;45.768;4.884;2024-01-30T05:57:48;10.93;;;6.40;;
82850;SDS011;72609;45.768;4.884;2024-01-30T06:00:14;14.80;;;7.63;;
82850;SDS011;72609;45.768;4.884;2024-01-30T06:02:40;13.00;;;8.40;;
82850;SDS011;72609;45.768;4.884;2024-01-30T06:05:06;11.88;;;7.80;;
82850;SDS011;72609;45.768;4.884;2024-01-30T06:07:32;12.98;;;7.80;;
82850;SDS011;72609;45.768;4.884;2024-01-30T06:09:58;10.98;;;6.63;;
82850;SDS011;72609;45.768;4.884;2024-01-30T06:12:25;12.13;;;7.18;;
82850;SDS011;72609;45.768;4.884;2024-01-30T06:14:51;12.25;;;7.53;;
82850;SDS011;72609;45.768;4.884;2024-01-30T06:17:19;14.73;;;7.57;;
82850;SDS011;72609;45.768;4.884;2024-01-30T06:19:45;10.40;;;6.97;;
82850;SDS011;72609;45.768;4.884;2024-01-30T06:22:11;13.40;;;7.32;;
82850;SDS011;72609;45.768;4.884;2024-01-30T06:24:37;12.63;;;7.28;;
82850;SDS011;72609;45.768;4.884;2024-01-30T06:27:03;10.25;;;7.95;;
82850;SDS011;72609;45.768;4.884;2024-01-30T06:29:29;14.45;;;7.78;;
82850;SDS011;72609;45.768;4.884;2024-01-30T06:31:55;12.57;;;7.85;;
82850;SDS011;72609;45.768;4.884;2024-01-30T06:34:22;19.05;;;7.68;;
82850;SDS011;72609;45.768;4.884;2024-01-30T06:36:48;18.00;;;8.32;;
82850;SDS011;72609;45.768;4.884;2024-01-30T06:39:14;18.27;;;9.52;;
82850;SDS011;72609;45.768;4.884;2024-01-30T06:41:40;15.70;;;9.30;;
82850;SDS011;72609;45.768;4.884;2024-01-30T06:44:06;23.17;;;8.90;;
82850;SDS011;72609;45.768;4.884;2024-01-30T06:46:33;17.67;;;8.95;;
82850;SDS011;72609;45.768;4.884;2024-01-30T06:48:59;14.95;;;9.15;;
82850;SDS011;72609;45.768;4.884;2024-01-30T06:51:26;12.23;;;7.88;;
82850;SDS011;72609;45.768;4.884;2024-01-30T06:53:52;19.02;;;8.13;;
82850;SDS011;72609;45.768;4.884;2024-01-30T06:56:18;18.40;;;8.90;;
82850;SDS011;72609;45.768;4.884;2024-01-30T06:58:50;17.90;;;9.38;;
82850;SDS011;72609;45.768;4.884;2024-01-30T07:01:16;22.65;;;8.57;;
82850;SDS011;72609;45.768;4.884;2024-01-30T07:03:42;19.83;;;8.43;;
82850;SDS011;72609;45.768;4.884;2024-01-30T07:06:09;21.10;;;8.10;;
82850;SDS011;72609;45.768;4.884;2024-01-30T07:08:36;11.88;;;8.02;;
82850;SDS011;72609;45.768;4.884;2024-01-30T07:11:05;15.20;;;8.82;;
82850;SDS011;72609;45.768;4.884;2024-01-30T07:13:31;15.50;;;8.30;;
82850;SDS011;72609;45.768;4.884;2024-01-30T07:15:57;11.35;;;7.13;;
82850;SDS011;72609;45.768;4.884;2024-01-30T07:18:24;15.32;;;8.45;;
82850;SDS011;72609;45.768;4.884;2024-01-30T07:20:49;13.07;;;7.97;;
82850;SDS011;72609;45.768;4.884;2024-01-30T07:23:16;12.05;;;6.88;;
82850;SDS011;72609;45.768;4.884;2024-01-30T07:30:35;12.25;;;6.82;;
82850;SDS011;72609;45.768;4.884;2024-01-30T07:33:01;14.95;;;8.02;;
82850;SDS011;72609;45.768;4.884;2024-01-30T07:35:27;12.77;;;7.43;;
82850;SDS011;72609;45.768;4.884;2024-01-30T07:37:53;13.55;;;8.60;;
82850;SDS011;72609;45.768;4.884;2024-01-30T07:40:19;14.05;;;8.85;;
82850;SDS011;72609;45.768;4.884;2024-01-30T07:42:45;16.42;;;7.85;;
82850;SDS011;72609;45.768;4.884;2024-01-30T07:45:11;14.07;;;8.25;;
82850;SDS011;72609;45.768;4.884;2024-01-30T07:47:37;13.43;;;7.60;;
82850;SDS011;72609;45.768;4.884;2024-01-30T07:50:04;13.15;;;7.97;;
82850;SDS011;72609;45.768;4.884;2024-01-30T07:52:30;15.32;;;7.47;;
82850;SDS011;72609;45.768;4.884;2024-01-30T07:54:56;19.30;;;8.57;;
82850;SDS011;72609;45.768;4.884;2024-01-30T07:57:22;17.10;;;8.45;;
82850;SDS011;72609;45.768;4.884;2024-01-30T07:59:48;17.25;;;8.13;;
82850;SDS011;72609;45.768;4.884;2024-01-30T08:02:14;14.05;;;8.20;;
82850;SDS011;72609;45.768;4.884;2024-01-30T08:04:40;15.07;;;8.73;;
82850;SDS011;72609;45.768;4.884;2024-01-30T08:07:06;15.90;;;7.05;;
82850;SDS011;72609;45.768;4.884;2024-01-30T08:09:32;12.35;;;7.43;;
82850;SDS011;72609;45.768;4.884;2024-01-30T08:11:58;16.20;;;6.40;;
82850;SDS011;72609;45.768;4.884;2024-01-30T08:14:24;23.38;;;8.82;;
82850;SDS011;72609;45.768;4.884;2024-01-30T08:16:51;16.70;;;7.13;;
82850;SDS011;72609;45.768;4.884;2024-01-30T08:19:17;18.15;;;9.60;;
82850;SDS011;72609;45.768;4.884;2024-01-30T08:21:43;15.38;;;7.88;;
82850;SDS011;72609;45.768;4.884;2024-01-30T08:24:09;13.93;;;8.23;;
82850;SDS011;72609;45.768;4.884;2024-01-30T08:26:35;14.77;;;7.13;;
82850;SDS011;72609;45.768;4.884;2024-01-30T08:29:01;21.75;;;8.32;;
82850;SDS011;72609;45.768;4.884;2024-01-30T08:31:27;27.85;;;9.55;;
82850;SDS011;72609;45.768;4.884;2024-01-30T08:33:53;17.10;;;9.05;;
82850;SDS011;72609;45.768;4.884;2024-01-30T08:36:19;15.63;;;8.55;;
82850;SDS011;72609;45.768;4.884;2024-01-30T08:38:45;23.40;;;9.93;;
82850;SDS011;72609;45.768;4.884;2024-01-30T08:41:12;18.05;;;10.95;;
82850;SDS011;72609;45.768;4.884;2024-01-30T08:43:38;12.60;;;9.23;;
82850;SDS011;72609;45.768;4.884;2024-01-30T08:46:04;14.65;;;9.48;;
82850;SDS011;72609;45.768;4.884;2024-01-30T08:48:30;15.35;;;9.98;;
82850;SDS011;72609;45.768;4.884;2024-01-30T08:50:56;17.05;;;10.93;;
82850;SDS011;72609;45.768;4.884;2024-01-30T08:53:21;21.52;;;10.38;;
82850;SDS011;72609;45.768;4.884;2024-01-30T08:55:47;17.90;;;10.63;;
82850;SDS011;72609;45.768;4.884;2024-01-30T08:58:13;16.05;;;10.02;;
82850;SDS011;72609;45.768;4.884;2024-01-30T09:00:40;15.68;;;9.80;;
82850;SDS011;72609;45.768;4.884;2024-01-30T09:03:06;16.83;;;10.15;;
82850;SDS011;72609;45.768;4.884;2024-01-30T09:05:32;17.23;;;10.50;;
82850;SDS011;72609;45.768;4.884;2024-01-30T09:07:58;12.88;;;8.68;;
82850;SDS011;72609;45.768;4.884;2024-01-30T09:10:24;17.58;;;9.75;;
82850;SDS011;72609;45.768;4.884;2024-01-30T09:12:50;12.38;;;7.72;;
82850;SDS011;72609;45.768;4.884;2024-01-30T09:15:16;15.48;;;9.10;;
82850;SDS011;72609;45.768;4.884;2024-01-30T09:17:42;17.38;;;8.73;;
82850;SDS011;72609;45.768;4.884;2024-01-30T09:20:08;16.45;;;8.45;;
82850;SDS011;72609;45.768;4.884;2024-01-30T09:22:34;16.92;;;8.73;;
82850;SDS011;72609;45.768;4.884;2024-01-30T09:25:00;14.55;;;8.50;;
82850;SDS011;72609;45.768;4.884;2024-01-30T09:27:26;16.63;;;9.07;;
82850;SDS011;72609;45.768;4.884;2024-01-30T09:29:52;15.80;;;7.85;;
82850;SDS011;72609;45.768;4.884;2024-01-30T09:32:18;23.83;;;10.10;;
82850;SDS011;72609;45.768;4.884;2024-01-30T09:34:44;17.08;;;9.32;;
82850;SDS011;72609;45.768;4.884;2024-01-30T09:37:10;20.70;;;10.65;;
82850;SDS011;72609;45.768;4.884;2024-01-30T09:39:36;15.93;;;9.80;;
82850;SDS011;72609;45.768;4.884;2024-01-30T09:44:28;14.77;;;8.18;;
82850;SDS011;72609;45.768;4.884;2024-01-30T09:46:55;15.93;;;8.85;;
82850;SDS011;72609;45.768;4.884;2024-01-30T09:49:28;18.67;;;9.40;;
82850;SDS011;72609;45.768;4.884;2024-01-30T09:51:54;15.88;;;10.18;;
82850;SDS011;72609;45.768;4.884;2024-01-30T09:54:20;17.88;;;10.07;;
82850;SDS011;72609;45.768;4.884;2024-01-30T09:56:47;24.35;;;11.05;;
82850;SDS011;72609;45.768;4.884;2024-01-30T10:01:39;18.23;;;9.20;;
82850;SDS011;72609;45.768;4.884;2024-01-30T10:04:05;17.13;;;9.90;;
82850;SDS011;72609;45.768;4.884;2024-01-30T10:06:32;21.75;;;10.63;;
82850;SDS011;72609;45.768;4.884;2024-01-30T10:08:58;22.40;;;10.43;;
82850;SDS011;72609;45.768;4.884;2024-01-30T10:11:24;15.60;;;10.70;;
82850;SDS011;72609;45.768;4.884;2024-01-30T10:13:50;17.35;;;8.73;;
82850;SDS011;72609;45.768;4.884;2024-01-30T10:16:16;19.77;;;10.80;;
82850;SDS011;72609;45.768;4.884;2024-01-30T10:18:42;22.27;;;9.75;;
82850;SDS011;72609;45.768;4.884;2024-01-30T10:21:08;27.20;;;11.05;;
82850;SDS011;72609;45.768;4.884;2024-01-30T10:26:02;20.30;;;9.82;;
82850;SDS011;72609;45.768;4.884;2024-01-30T10:28:28;18.90;;;9.88;;
82850;SDS011;72609;45.768;4.884;2024-01-30T10:31:02;13.98;;;8.85;;
82850;SDS011;72609;45.768;4.884;2024-01-30T10:33:31;17.83;;;7.72;;
82850;SDS011;72609;45.768;4.884;2024-01-30T10:36:00;16.02;;;8.18;;
82850;SDS011;72609;45.768;4.884;2024-01-30T10:38:27;15.82;;;8.85;;
82850;SDS011;72609;45.768;4.884;2024-01-30T10:40:56;14.98;;;8.65;;
82850;SDS011;72609;45.768;4.884;2024-01-30T10:43:22;15.10;;;8.13;;
82850;SDS011;72609;45.768;4.884;2024-01-30T10:45:49;14.73;;;8.18;;
82850;SDS011;72609;45.768;4.884;2024-01-30T10:48:17;16.33;;;8.27;;
82850;SDS011;72609;45.768;4.884;2024-01-30T10:50:44;12.77;;;6.60;;
82850;SDS011;72609;45.768;4.884;2024-01-30T10:53:11;13.85;;;7.97;;
82850;SDS011;72609;45.768;4.884;2024-01-30T10:58:03;13.05;;;5.93;;
82850;SDS011;72609;45.768;4.884;2024-01-30T11:02:58;13.70;;;7.38;;
82850;SDS011;72609;45.768;4.884;2024-01-30T11:05:24;14.98;;;8.35;;
82850;SDS011;72609;45.768;4.884;2024-01-30T11:07:54;17.17;;;7.85;;
82850;SDS011;72609;45.768;4.884;2024-01-30T11:10:20;12.00;;;7.00;;
82850;SDS011;72609;45.768;4.884;2024-01-30T11:12:46;14.43;;;6.50;;
82850;SDS011;72609;45.768;4.884;2024-01-30T11:15:13;10.18;;;6.00;;
82850;SDS011;72609;45.768;4.884;2024-01-30T11:20:09;8.93;;;5.70;;
82850;SDS011;72609;45.768;4.884;2024-01-30T11:22:35;8.80;;;5.25;;
82850;SDS011;72609;45.768;4.884;2024-01-30T11:25:01;9.77;;;6.22;;
82850;SDS011;72609;45.768;4.884;2024-01-30T11:27:28;8.15;;;6.13;;
82850;SDS011;72609;45.768;4.884;2024-01-30T11:29:54;8.90;;;5.85;;
82850;SDS011;72609;45.768;4.884;2024-01-30T11:32:26;14.27;;;5.95;;
82850;SDS011;72609;45.768;4.884;2024-01-30T11:34:52;11.43;;;5.88;;
82850;SDS011;72609;45.768;4.884;2024-01-30T11:37:19;10.88;;;5.85;;
82850;SDS011;72609;45.768;4.884;2024-01-30T11:39:45;7.97;;;6.28;;
82850;SDS011;72609;45.768;4.884;2024-01-30T11:42:11;7.22;;;5.28;;
82850;SDS011;72609;45.768;4.884;2024-01-30T11:44:38;9.27;;;5.95;;
82850;SDS011;72609;45.768;4.884;2024-01-30T11:47:04;12.73;;;5.78;;
82850;SDS011;72609;45.768;4.884;2024-01-30T11:49:30;13.40;;;6.25;;
82850;SDS011;72609;45.768;4.884;2024-01-30T11:51:56;11.38;;;6.20;;
82850;SDS011;72609;45.768;4.884;2024-01-30T11:54:22;8.98;;;5.63;;
82850;SDS011;72609;45.768;4.884;2024-01-30T11:56:48;12.20;;;6.03;;
82850;SDS011;72609;45.768;4.884;2024-01-30T11:59:14;9.82;;;6.00;;
82850;SDS011;72609;45.768;4.884;2024-01-30T12:01:40;11.02;;;5.32;;
82850;SDS011;72609;45.768;4.884;2024-01-30T12:04:06;11.93;;;5.68;;
82850;SDS011;72609;45.768;4.884;2024-01-30T12:06:34;10.02;;;5.80;;
82850;SDS011;72609;45.768;4.884;2024-01-30T12:09:01;11.07;;;6.55;;
82850;SDS011;72609;45.768;4.884;2024-01-30T12:11:42;9.15;;;5.55;;
82850;SDS011;72609;45.768;4.884;2024-01-30T12:14:08;7.40;;;5.35;;
82850;SDS011;72609;45.768;4.884;2024-01-30T12:16:35;12.48;;;5.88;;
82850;SDS011;72609;45.768;4.884;2024-01-30T12:19:01;10.13;;;6.45;;
82850;SDS011;72609;45.768;4.884;2024-01-30T12:21:27;9.85;;;5.88;;
82850;SDS011;72609;45.768;4.884;2024-01-30T12:23:53;10.60;;;5.68;;
82850;SDS011;72609;45.768;4.884;2024-01-30T12:26:19;8.75;;;6.40;;
82850;SDS011;72609;45.768;4.884;2024-01-30T12:28:48;12.13;;;6.60;;
82850;SDS011;72609;45.768;4.884;2024-01-30T12:31:15;10.52;;;6.35;;
82850;SDS011;72609;45.768;4.884;2024-01-30T12:33:41;12.82;;;7.75;;
82850;SDS011;72609;45.768;4.884;2024-01-30T12:36:07;13.27;;;5.82;;
82850;SDS011;72609;45.768;4.884;2024-01-30T12:38:33;11.27;;;7.50;;
82850;SDS011;72609;45.768;4.884;2024-01-30T12:40:59;12.73;;;7.40;;
82850;SDS011;72609;45.768;4.884;2024-01-30T12:43:25;13.15;;;6.28;;
82850;SDS011;72609;45.768;4.884;2024-01-30T12:45:54;8.88;;;5.75;;
82850;SDS011;72609;45.768;4.884;2024-01-30T12:48:20;13.95;;;5.60;;
82850;SDS011;72609;45.768;4.884;2024-01-30T12:50:46;8.13;;;4.50;;
82850;SDS011;72609;45.768;4.884;2024-01-30T12:53:12;9.23;;;5.05;;
82850;SDS011;72609;45.768;4.884;2024-01-30T12:55:38;7.10;;;4.70;;
82850;SDS011;72609;45.768;4.884;2024-01-30T12:58:04;10.38;;;5.88;;
82850;SDS011;72609;45.768;4.884;2024-01-30T13:02:56;9.45;;;5.38;;
82850;SDS011;72609;45.768;4.884;2024-01-30T13:05:22;8.40;;;4.97;;
82850;SDS011;72609;45.768;4.884;2024-01-30T13:07:49;10.00;;;6.47;;
82850;SDS011;72609;45.768;4.884;2024-01-30T13:10:15;11.77;;;5.25;;
82850;SDS011;72609;45.768;4.884;2024-01-30T13:12:41;10.27;;;4.95;;
82850;SDS011;72609;45.768;4.884;2024-01-30T13:15:07;9.60;;;5.28;;
82850;SDS011;72609;45.768;4.884;2024-01-30T13:17:33;8.52;;;4.30;;
82850;SDS011;72609;45.768;4.884;2024-01-30T13:19:59;8.60;;;4.88;;
82850;SDS011;72609;45.768;4.884;2024-01-30T13:22:25;6.10;;;4.72;;
82850;SDS011;72609;45.768;4.884;2024-01-30T13:24:51;8.07;;;4.80;;
82850;SDS011;72609;45.768;4.884;2024-01-30T13:27:17;8.52;;;4.88;;
82850;SDS011;72609;45.768;4.884;2024-01-30T13:29:43;11.60;;;4.45;;
82850;SDS011;72609;45.768;4.884;2024-01-30T13:32:09;8.85;;;4.45;;
82850;SDS011;72609;45.768;4.884;2024-01-30T13:34:35;10.52;;;5.28;;
82850;SDS011;72609;45.768;4.884;2024-01-30T13:37:01;8.95;;;5.43;;
82850;SDS011;72609;45.768;4.884;2024-01-30T13:39:27;9.10;;;5.25;;
82850;SDS011;72609;45.768;4.884;2024-01-30T13:41:54;9.05;;;4.70;;
82850;SDS011;72609;45.768;4.884;2024-01-30T13:44:20;10.68;;;5.25;;
82850;SDS011;72609;45.768;4.884;2024-01-30T13:46:46;6.75;;;4.38;;
82850;SDS011;72609;45.768;4.884;2024-01-30T13:49:12;6.38;;;4.57;;
82850;SDS011;72609;45.768;4.884;2024-01-30T13:51:38;7.28;;;4.78;;
82850;SDS011;72609;45.768;4.884;2024-01-30T13:54:04;10.38;;;5.60;;
82850;SDS011;72609;45.768;4.884;2024-01-30T13:56:30;10.95;;;3.80;;
82850;SDS011;72609;45.768;4.884;2024-01-30T13:58:56;9.13;;;4.75;;
82850;SDS011;72609;45.768;4.884;2024-01-30T14:01:22;6.90;;;4.75;;
82850;SDS011;72609;45.768;4.884;2024-01-30T14:03:49;9.25;;;5.10;;
82850;SDS011;72609;45.768;4.884;2024-01-30T14:06:15;9.50;;;4.75;;
82850;SDS011;72609;45.768;4.884;2024-01-30T14:08:41;7.35;;;3.53;;
82850;SDS011;72609;45.768;4.884;2024-01-30T14:11:07;8.77;;;4.20;;
82850;SDS011;72609;45.768;4.884;2024-01-30T14:13:33;9.15;;;4.85;;
82850;SDS011;72609;45.768;4.884;2024-01-30T14:15:59;5.82;;;3.75;;
82850;SDS011;72609;45.768;4.884;2024-01-30T14:18:25;7.15;;;4.45;;
82850;SDS011;72609;45.768;4.884;2024-01-30T14:20:51;6.22;;;3.70;;
82850;SDS011;72609;45.768;4.884;2024-01-30T14:23:17;10.90;;;4.22;;
82850;SDS011;72609;45.768;4.884;2024-01-30T14:25:43;8.95;;;4.10;;
82850;SDS011;72609;45.768;4.884;2024-01-30T14:28:09;9.80;;;4.20;;
82850;SDS011;72609;45.768;4.884;2024-01-30T14:30:35;13.23;;;4.65;;
82850;SDS011;72609;45.768;4.884;2024-01-30T14:33:01;6.55;;;3.90;;
82850;SDS011;72609;45.768;4.884;2024-01-30T14:35:27;8.43;;;3.47;;
82850;SDS011;72609;45.768;4.884;2024-01-30T14:37:53;6.05;;;3.30;;
82850;SDS011;72609;45.768;4.884;2024-01-30T14:40:19;8.18;;;3.88;;
82850;SDS011;72609;45.768;4.884;2024-01-30T14:42:46;5.32;;;3.58;;
82850;SDS011;72609;45.768;4.884;2024-01-30T14:45:12;5.88;;;3.08;;
82850;SDS011;72609;45.768;4.884;2024-01-30T14:47:38;5.32;;;3.30;;
82850;SDS011;72609;45.768;4.884;2024-01-30T14:50:04;7.82;;;4.28;;
82850;SDS011;72609;45.768;4.884;2024-01-30T14:52:30;5.35;;;3.03;;
82850;SDS011;72609;45.768;4.884;2024-01-30T14:54:57;8.00;;;3.58;;
82850;SDS011;72609;45.768;4.884;2024-01-30T14:57:23;6.72;;;3.28;;
82850;SDS011;72609;45.768;4.884;2024-01-30T14:59:49;8.07;;;3.60;;
82850;SDS011;72609;45.768;4.884;2024-01-30T15:02:15;5.68;;;3.70;;